createdAt,value
2023-06-04T00:01:40.215Z,9.26
2023-06-04T00:04:12.059Z,9.25
2023-06-04T00:06:41.710Z,9.21
2023-06-04T00:09:11.364Z,9.15
2023-06-04T00:11:41.410Z,9.10
2023-06-04T00:14:13.673Z,9.05
2023-06-04T00:16:43.485Z,9.04
2023-06-04T00:19:13.177Z,9.03
2023-06-04T00:21:42.833Z,9.01
2023-06-04T00:24:14.067Z,8.97
2023-06-04T00:26:43.844Z,8.97
2023-06-04T00:29:18.765Z,8.97
2023-06-04T00:31:48.454Z,8.92
2023-06-04T00:34:21.072Z,8.90
2023-06-04T00:36:50.890Z,8.85
2023-06-04T00:39:20.878Z,8.83
2023-06-04T00:41:50.855Z,8.80
2023-06-04T00:44:26.362Z,8.82
2023-06-04T00:46:56.875Z,8.83
2023-06-04T00:49:26.466Z,8.76
2023-06-04T00:51:56.020Z,8.76
2023-06-04T00:54:25.884Z,8.78
2023-06-04T00:56:55.518Z,8.76
2023-06-04T00:59:28.034Z,8.77
2023-06-04T01:02:03.212Z,8.75
2023-06-04T01:04:35.412Z,8.75
2023-06-04T01:07:08.101Z,8.71
2023-06-04T01:09:37.998Z,8.64
2023-06-04T01:12:08.236Z,8.63
2023-06-04T01:14:40.645Z,8.58
2023-06-04T01:17:16.495Z,8.54
2023-06-04T01:20:04.271Z,8.45
2023-06-04T01:22:39.136Z,8.39
2023-06-04T01:25:20.670Z,8.29
2023-06-04T01:27:53.596Z,8.21
2023-06-04T01:30:28.730Z,8.23
2023-06-04T01:32:58.642Z,8.31
2023-06-04T01:35:29.625Z,8.37
2023-06-04T01:37:59.675Z,8.35
2023-06-04T01:40:29.567Z,8.31
2023-06-04T01:43:01.801Z,8.30
2023-06-04T01:45:34.400Z,8.18
2023-06-04T01:48:05.522Z,8.10
2023-06-04T01:50:35.197Z,8.04
2023-06-04T01:53:04.741Z,8.03
2023-06-04T01:55:34.869Z,7.96
2023-06-04T01:58:04.649Z,7.92
2023-06-04T02:00:37.048Z,7.91
2023-06-04T02:03:07.339Z,7.93
2023-06-04T02:05:36.966Z,7.86
2023-06-04T02:08:06.607Z,7.85
2023-06-04T02:10:36.558Z,7.83
2023-06-04T02:13:07.763Z,7.82
2023-06-04T02:15:40.098Z,7.82
2023-06-04T02:18:22.294Z,7.87
2023-06-04T02:20:52.824Z,7.93
2023-06-04T02:23:23.595Z,7.95
2023-06-04T02:25:53.289Z,7.97
2023-06-04T02:28:22.922Z,7.96
2023-06-04T02:30:55.124Z,7.95
2023-06-04T02:33:24.797Z,7.93
2023-06-04T02:35:54.349Z,7.83
2023-06-04T02:38:23.925Z,7.74
2023-06-04T02:40:53.534Z,7.65
2023-06-04T02:43:23.255Z,7.66
2023-06-04T02:45:55.507Z,7.52
2023-06-04T02:48:25.122Z,7.53
2023-06-04T02:50:54.688Z,7.50
2023-06-04T02:53:25.137Z,7.49
2023-06-04T02:55:55.063Z,7.46
2023-06-04T02:58:30.046Z,7.44
2023-06-04T03:01:02.306Z,7.63
2023-06-04T03:03:32.735Z,7.65
2023-06-04T03:06:03.607Z,7.66
2023-06-04T03:08:33.183Z,7.64
2023-06-04T03:11:03.017Z,7.69
2023-06-04T03:13:32.552Z,7.61
2023-06-04T03:16:05.134Z,7.64
2023-06-04T03:18:34.821Z,7.68
2023-06-04T03:21:04.459Z,7.67
2023-06-04T03:23:35.394Z,7.66
2023-06-04T03:26:05.126Z,7.60
2023-06-04T03:28:35.604Z,7.57
2023-06-04T03:31:08.012Z,7.48
2023-06-04T03:33:37.871Z,7.44
2023-06-04T03:36:08.250Z,7.30
2023-06-04T03:38:37.789Z,7.20
2023-06-04T03:41:07.469Z,7.13
2023-06-04T03:43:37.237Z,7.10
2023-06-04T03:46:09.362Z,7.03
2023-06-04T03:48:38.917Z,6.98
2023-06-04T03:51:08.709Z,7.04
2023-06-04T03:53:38.545Z,7.06
2023-06-04T03:56:08.527Z,7.10
2023-06-04T03:58:39.044Z,7.23
2023-06-04T04:01:11.614Z,7.30
2023-06-04T04:03:41.386Z,7.33
2023-06-04T04:06:11.370Z,7.38
2023-06-04T04:08:43.490Z,7.40
2023-06-04T04:11:13.226Z,7.46
2023-06-04T04:13:42.828Z,7.48
2023-06-04T04:16:15.066Z,7.57
2023-06-04T04:18:46.212Z,7.62
2023-06-04T04:21:16.055Z,7.64
2023-06-04T04:23:45.754Z,7.66
2023-06-04T04:26:18.280Z,7.69
2023-06-04T04:28:47.990Z,7.80
2023-06-04T04:31:23.510Z,7.84
2023-06-04T04:33:53.465Z,7.87
2023-06-04T04:36:24.858Z,8.01
2023-06-04T04:38:56.011Z,8.71
2023-06-04T04:41:26.634Z,8.74
2023-06-04T04:43:57.166Z,9.12
2023-06-04T04:46:29.314Z,9.10
2023-06-04T04:48:58.915Z,8.98
2023-06-04T04:51:28.541Z,9.61
2023-06-04T04:53:58.460Z,9.28
2023-06-04T04:56:28.182Z,9.34
2023-06-04T04:58:57.926Z,9.39
2023-06-04T05:01:30.311Z,9.22
2023-06-04T05:04:02.535Z,9.17
2023-06-04T05:06:32.870Z,9.10
2023-06-04T05:09:02.481Z,9.10
2023-06-04T05:11:32.022Z,9.13
2023-06-04T05:14:01.662Z,9.37
2023-06-04T05:16:36.602Z,9.47
2023-06-04T05:19:06.241Z,9.53
2023-06-04T05:21:37.973Z,9.57
2023-06-04T05:24:07.718Z,9.72
2023-06-04T05:26:37.314Z,9.76
2023-06-04T05:29:07.372Z,9.79
2023-06-04T05:31:41.215Z,10.06
2023-06-04T05:34:17.247Z,10.01
2023-06-04T05:36:47.178Z,10.02
2023-06-04T05:39:16.814Z,10.09
2023-06-04T05:41:48.851Z,10.15
2023-06-04T05:44:18.460Z,10.18
2023-06-04T05:46:50.871Z,10.53
2023-06-04T05:49:21.570Z,10.49
2023-06-04T05:51:51.242Z,10.49
2023-06-04T05:54:20.861Z,10.56
2023-06-04T05:56:50.676Z,10.57
2023-06-04T05:59:20.280Z,10.69
2023-06-04T06:01:53.668Z,10.87
2023-06-04T06:04:23.406Z,11.02
2023-06-04T06:06:52.983Z,11.23
2023-06-04T06:09:25.298Z,11.53
2023-06-04T06:11:54.844Z,11.63
2023-06-04T06:14:24.597Z,11.51
2023-06-04T06:16:57.288Z,11.37
2023-06-04T06:19:27.668Z,11.42
2023-06-04T06:21:59.006Z,11.46
2023-06-04T06:24:28.941Z,11.67
2023-06-04T06:26:58.560Z,11.65
2023-06-04T06:29:28.122Z,11.69
2023-06-04T06:32:00.527Z,11.84
2023-06-04T06:34:30.832Z,11.88
2023-06-04T06:37:00.610Z,11.93
2023-06-04T06:39:30.174Z,12.01
2023-06-04T06:41:59.768Z,11.99
2023-06-04T06:44:29.309Z,12.09
2023-06-04T06:47:01.433Z,12.21
2023-06-04T06:49:31.413Z,12.32
2023-06-04T06:52:00.964Z,12.27
2023-06-04T06:54:30.861Z,12.50
2023-06-04T06:57:00.415Z,12.42
2023-06-04T06:59:30.120Z,12.62
2023-06-04T07:02:02.345Z,12.69
2023-06-04T07:04:32.272Z,12.71
2023-06-04T07:07:01.801Z,12.67
2023-06-04T07:09:31.468Z,12.97
2023-06-04T07:12:01.166Z,12.96
2023-06-04T07:14:31.445Z,13.14
2023-06-04T07:17:16.301Z,13.22
2023-06-04T07:19:46.111Z,13.35
2023-06-04T07:22:16.927Z,13.61
2023-06-04T07:24:46.608Z,13.60
2023-06-04T07:27:16.693Z,13.68
2023-06-04T07:29:47.984Z,13.73
2023-06-04T07:32:20.184Z,13.77
2023-06-04T07:34:49.779Z,13.83
2023-06-04T07:37:19.455Z,13.96
2023-06-04T07:39:49.327Z,14.03
2023-06-04T07:42:18.911Z,14.11
2023-06-04T07:44:48.512Z,14.27
2023-06-04T07:47:20.676Z,14.27
2023-06-04T07:50:01.636Z,14.35
2023-06-04T07:52:32.440Z,14.44
2023-06-04T07:55:02.765Z,14.50
2023-06-04T07:57:33.023Z,14.58
2023-06-04T08:00:05.234Z,14.77
2023-06-04T08:02:37.515Z,14.84
2023-06-04T08:05:07.960Z,14.93
2023-06-04T08:07:37.639Z,14.95
2023-06-04T08:10:07.895Z,15.06
2023-06-04T08:12:37.417Z,15.02
2023-06-04T08:15:08.635Z,15.05
2023-06-04T08:17:40.820Z,15.21
2023-06-04T08:20:12.818Z,15.41
2023-06-04T08:22:43.102Z,15.47
2023-06-04T08:25:13.053Z,15.61
2023-06-04T08:27:42.577Z,15.70
2023-06-04T08:30:13.184Z,15.75
2023-06-04T08:32:45.347Z,15.84
2023-06-04T08:35:14.881Z,15.97
2023-06-04T08:37:44.462Z,16.02
2023-06-04T08:40:15.585Z,16.03
2023-06-04T08:42:46.601Z,16.11
2023-06-04T08:45:17.840Z,16.13
2023-06-04T08:47:52.854Z,16.07
2023-06-04T08:50:24.378Z,15.98
2023-06-04T08:52:56.524Z,16.10
2023-06-04T08:55:26.722Z,16.33
2023-06-04T08:57:56.663Z,16.46
2023-06-04T09:00:26.585Z,16.40
2023-06-04T09:02:59.158Z,16.60
2023-06-04T09:05:28.753Z,16.40
2023-06-04T09:07:59.680Z,16.66
2023-06-04T09:10:29.916Z,16.91
2023-06-04T09:13:01.019Z,16.93
2023-06-04T09:15:30.747Z,17.08
2023-06-04T09:18:02.999Z,17.13
2023-06-04T09:20:34.004Z,16.86
2023-06-04T09:23:03.618Z,17.00
2023-06-04T09:25:33.268Z,17.16
2023-06-04T09:28:10.762Z,17.18
2023-06-04T09:30:40.275Z,17.17
2023-06-04T09:33:16.027Z,17.44
2023-06-04T09:35:45.582Z,17.53
2023-06-04T09:38:15.363Z,17.49
2023-06-04T09:40:45.628Z,17.71
2023-06-04T09:43:15.468Z,17.81
2023-06-04T09:45:45.095Z,17.98
2023-06-04T09:48:23.429Z,17.97
2023-06-04T09:50:53.005Z,17.92
2023-06-04T09:53:27.260Z,18.10
2023-06-04T09:56:01.057Z,17.97
2023-06-04T09:58:31.695Z,18.00
2023-06-04T10:01:02.968Z,18.10
2023-06-04T10:03:38.020Z,18.30
2023-06-04T10:06:08.934Z,18.21
2023-06-04T10:08:44.214Z,18.03
2023-06-04T10:11:16.189Z,18.32
2023-06-04T10:13:51.687Z,18.35
2023-06-04T10:16:33.433Z,18.11
2023-06-04T10:19:09.116Z,18.28
2023-06-04T10:21:38.850Z,18.33
2023-06-04T10:24:11.518Z,18.43
2023-06-04T10:26:41.269Z,18.33
2023-06-04T10:29:10.928Z,18.64
2023-06-04T10:31:42.635Z,18.71
2023-06-04T10:34:15.455Z,18.73
2023-06-04T10:36:49.033Z,18.86
2023-06-04T10:39:29.272Z,18.55
2023-06-04T10:42:03.938Z,18.44
2023-06-04T10:44:34.047Z,18.54
2023-06-04T10:47:03.655Z,18.56
2023-06-04T10:49:36.068Z,18.27
2023-06-04T10:52:14.268Z,18.14
2023-06-04T10:54:46.457Z,18.68
2023-06-04T10:57:16.927Z,18.70
2023-06-04T10:59:57.589Z,19.24
2023-06-04T11:02:27.419Z,19.20
2023-06-04T11:05:08.259Z,19.19
2023-06-04T11:07:48.562Z,19.43
2023-06-04T11:10:19.960Z,19.41
2023-06-04T11:12:51.937Z,19.28
2023-06-04T11:15:21.691Z,19.30
2023-06-04T11:17:55.826Z,19.60
2023-06-04T11:20:28.289Z,19.44
2023-06-04T11:22:59.306Z,19.23
2023-06-04T11:25:30.305Z,19.51
2023-06-04T11:27:59.921Z,19.58
2023-06-04T11:30:29.623Z,19.58
2023-06-04T11:33:06.701Z,19.73
2023-06-04T11:35:44.944Z,19.54
2023-06-04T11:38:15.088Z,19.69
2023-06-04T11:40:46.422Z,19.60
2023-06-04T11:43:16.071Z,19.59
2023-06-04T11:45:45.793Z,19.60
2023-06-04T11:48:15.690Z,19.50
2023-06-04T11:50:47.878Z,19.38
2023-06-04T11:53:17.557Z,19.61
2023-06-04T11:55:47.290Z,19.74
2023-06-04T11:58:17.156Z,19.96
2023-06-04T12:00:46.858Z,20.00
2023-06-04T12:03:19.487Z,20.36
2023-06-04T12:05:51.697Z,20.34
2023-06-04T12:08:21.768Z,20.26
2023-06-04T12:10:52.418Z,20.44
2023-06-04T12:13:21.946Z,20.55
2023-06-04T12:15:55.947Z,20.88
2023-06-04T12:18:28.077Z,20.58
2023-06-04T12:21:00.286Z,20.60
2023-06-04T12:23:30.960Z,21.10
2023-06-04T12:26:03.595Z,21.13
2023-06-04T12:28:33.187Z,20.95
2023-06-04T12:31:02.769Z,21.53
2023-06-04T12:33:32.351Z,21.23
2023-06-04T12:36:06.813Z,21.07
2023-06-04T12:38:36.514Z,21.84
2023-06-04T12:41:06.575Z,21.23
2023-06-04T12:43:38.809Z,21.89
2023-06-04T12:46:08.487Z,22.65
2023-06-04T12:48:38.214Z,22.42
2023-06-04T12:51:12.014Z,23.28
2023-06-04T12:53:42.683Z,22.85
2023-06-04T12:56:12.865Z,22.76
2023-06-04T12:58:45.486Z,23.00
2023-06-04T13:01:15.157Z,22.21
2023-06-04T13:03:45.058Z,22.85
2023-06-04T13:06:17.520Z,22.14
2023-06-04T13:08:47.298Z,22.01
2023-06-04T13:11:16.833Z,21.43
2023-06-04T13:13:46.463Z,21.68
2023-06-04T13:16:16.292Z,22.62
2023-06-04T13:18:45.883Z,22.18
2023-06-04T13:21:18.136Z,22.92
2023-06-04T13:23:50.113Z,23.24
2023-06-04T13:26:20.262Z,22.86
2023-06-04T13:28:50.516Z,21.69
2023-06-04T13:31:20.128Z,22.55
2023-06-04T13:33:50.002Z,22.89
2023-06-04T13:36:22.189Z,22.47
2023-06-04T13:38:53.852Z,22.15
2023-06-04T13:41:24.324Z,22.04
2023-06-04T13:43:53.974Z,22.59
2023-06-04T13:46:23.805Z,22.97
2023-06-04T13:48:53.463Z,23.54
2023-06-04T13:51:25.611Z,23.67
2023-06-04T13:53:56.046Z,23.06
2023-06-04T13:56:26.538Z,23.69
2023-06-04T13:58:56.549Z,23.08
2023-06-04T14:01:26.088Z,23.30
2023-06-04T14:03:59.860Z,22.96
2023-06-04T14:06:32.448Z,23.41
2023-06-04T14:09:02.936Z,23.76
2023-06-04T14:11:33.800Z,23.28
2023-06-04T14:14:03.467Z,23.52
2023-06-04T14:16:33.126Z,23.59
2023-06-04T14:19:02.754Z,23.35
2023-06-04T14:21:34.897Z,23.05
2023-06-04T14:24:04.810Z,23.00
2023-06-04T14:26:34.900Z,23.78
2023-06-04T14:29:04.455Z,23.46
2023-06-04T14:31:34.098Z,23.05
2023-06-04T14:34:03.998Z,22.57
2023-06-04T14:36:36.209Z,22.58
2023-06-04T14:39:05.759Z,22.72
2023-06-04T14:41:35.294Z,22.42
2023-06-04T14:44:05.058Z,22.38
2023-06-04T14:46:34.630Z,22.04
2023-06-04T14:49:04.260Z,22.19
2023-06-04T14:51:36.438Z,22.04
2023-06-04T14:54:06.016Z,21.98
2023-06-04T14:56:35.559Z,21.80
2023-06-04T14:59:10.090Z,21.91
2023-06-04T15:01:39.958Z,21.91
2023-06-04T15:04:09.761Z,21.67
2023-06-04T15:06:42.323Z,21.66
2023-06-04T15:09:12.110Z,21.73
2023-06-04T15:11:41.731Z,21.38
2023-06-04T15:14:11.282Z,21.27
2023-06-04T15:16:41.026Z,21.37
2023-06-04T15:19:10.913Z,21.26
2023-06-04T15:21:44.984Z,21.29
2023-06-04T15:24:14.614Z,21.00
2023-06-04T15:26:44.262Z,21.06
2023-06-04T15:29:13.811Z,20.84
2023-06-04T15:31:43.417Z,20.66
2023-06-04T15:34:13.107Z,20.81
2023-06-04T15:36:45.408Z,20.74
2023-06-04T15:39:14.936Z,20.94
2023-06-04T15:41:44.576Z,20.84
2023-06-04T15:44:14.167Z,20.90
2023-06-04T15:46:43.733Z,20.56
2023-06-04T15:49:13.638Z,20.39
2023-06-04T15:51:46.148Z,20.42
2023-06-04T15:54:16.010Z,20.31
2023-06-04T15:56:45.594Z,20.42
2023-06-04T15:59:15.142Z,20.30
2023-06-04T16:01:46.485Z,20.37
2023-06-04T16:04:16.771Z,20.25
2023-06-04T16:06:51.024Z,20.38
2023-06-04T16:09:20.596Z,20.27
2023-06-04T16:11:50.132Z,20.22
2023-06-04T16:14:19.674Z,20.13
2023-06-04T16:16:49.600Z,20.36
2023-06-04T16:19:19.512Z,20.45
2023-06-04T16:21:51.648Z,20.10
2023-06-04T16:24:21.556Z,20.13
2023-06-04T16:26:51.107Z,20.34
2023-06-04T16:29:20.830Z,20.21
2023-06-04T16:31:50.404Z,20.16
2023-06-04T16:34:19.953Z,20.37
2023-06-04T16:36:52.196Z,20.55
2023-06-04T16:39:21.784Z,20.62
2023-06-04T16:41:51.307Z,20.77
2023-06-04T16:44:20.866Z,20.56
2023-06-04T16:46:50.439Z,20.63
2023-06-04T16:49:20.074Z,20.93
2023-06-04T16:51:52.338Z,20.77
2023-06-04T16:54:21.931Z,20.90
2023-06-04T16:56:51.449Z,20.98
2023-06-04T16:59:20.986Z,21.56
2023-06-04T17:01:50.549Z,21.39
2023-06-04T17:04:20.138Z,20.89
2023-06-04T17:06:52.322Z,20.71
2023-06-04T17:09:22.171Z,20.41
2023-06-04T17:11:51.707Z,20.09
2023-06-04T17:14:21.438Z,19.89
2023-06-04T17:16:51.082Z,19.78
2023-06-04T17:19:21.436Z,19.96
2023-06-04T17:21:53.546Z,19.85
2023-06-04T17:24:23.144Z,20.22
2023-06-04T17:26:52.710Z,20.13
2023-06-04T17:29:22.531Z,20.04
2023-06-04T17:31:52.411Z,20.03
2023-06-04T17:34:22.335Z,19.78
2023-06-04T17:36:54.607Z,19.16
2023-06-04T17:39:24.174Z,19.12
2023-06-04T17:41:53.748Z,18.99
2023-06-04T17:44:23.345Z,18.83
2023-06-04T17:46:52.996Z,18.60
2023-06-04T17:49:22.801Z,18.71
2023-06-04T17:51:54.963Z,18.56
2023-06-04T17:54:24.521Z,18.69
2023-06-04T17:56:54.068Z,18.51
2023-06-04T17:59:23.635Z,18.44
2023-06-04T18:01:53.207Z,18.28
2023-06-04T18:04:22.891Z,18.29
2023-06-04T18:06:56.237Z,18.00
2023-06-04T18:09:27.374Z,17.95
2023-06-04T18:11:56.900Z,17.74
2023-06-04T18:14:26.485Z,17.68
2023-06-04T18:16:56.081Z,17.52
2023-06-04T18:19:25.687Z,17.51
2023-06-04T18:21:57.819Z,17.49
2023-06-04T18:24:28.502Z,17.40
2023-06-04T18:27:00.973Z,17.29
2023-06-04T18:29:32.501Z,17.26
2023-06-04T18:32:02.272Z,17.19
2023-06-04T18:34:33.391Z,17.18
2023-06-04T18:37:06.184Z,16.97
2023-06-04T18:39:35.826Z,16.89
2023-06-04T18:42:14.586Z,16.71
2023-06-04T18:44:51.627Z,16.63
2023-06-04T18:47:21.147Z,16.59
2023-06-04T18:49:51.017Z,16.53
2023-06-04T18:52:23.219Z,16.51
2023-06-04T18:54:52.830Z,16.39
2023-06-04T18:57:23.012Z,16.31
2023-06-04T18:59:52.641Z,16.24
2023-06-04T19:02:22.209Z,16.21
2023-06-04T19:04:51.870Z,16.11
2023-06-04T19:07:24.339Z,16.12
2023-06-04T19:09:54.109Z,15.96
2023-06-04T19:12:23.954Z,15.98
2023-06-04T19:14:54.342Z,15.82
2023-06-04T19:17:25.816Z,15.85
2023-06-04T19:19:56.146Z,15.68
2023-06-04T19:22:28.562Z,15.65
2023-06-04T19:24:58.733Z,15.69
2023-06-04T19:27:28.540Z,15.58
2023-06-04T19:29:58.138Z,15.55
2023-06-04T19:32:29.198Z,15.51
2023-06-04T19:34:59.074Z,15.45
2023-06-04T19:37:31.386Z,15.42
2023-06-04T19:40:01.256Z,15.29
2023-06-04T19:42:30.846Z,15.23
2023-06-04T19:45:00.461Z,15.12
2023-06-04T19:47:30.545Z,15.06
2023-06-04T19:50:00.261Z,14.98
2023-06-04T19:52:32.592Z,14.91
2023-06-04T19:55:02.149Z,14.85
2023-06-04T19:57:31.699Z,14.76
2023-06-04T20:00:01.363Z,14.74
2023-06-04T20:02:31.097Z,14.73
2023-06-04T20:05:00.716Z,14.64
2023-06-04T20:07:35.637Z,14.58
2023-06-04T20:10:05.671Z,14.51
2023-06-04T20:12:35.681Z,14.49
2023-06-04T20:15:05.282Z,14.36
2023-06-04T20:17:34.824Z,14.34
2023-06-04T20:20:04.380Z,14.28
2023-06-04T20:22:36.609Z,14.27
2023-06-04T20:25:06.473Z,14.25
2023-06-04T20:27:36.018Z,14.03
2023-06-04T20:30:05.796Z,14.02
2023-06-04T20:32:35.530Z,13.91
2023-06-04T20:35:05.338Z,13.88
2023-06-04T20:37:39.801Z,13.94
2023-06-04T20:40:11.062Z,13.89
2023-06-04T20:42:40.610Z,13.80
2023-06-04T20:45:11.889Z,13.76
2023-06-04T20:47:41.463Z,13.75
2023-06-04T20:50:12.108Z,13.73
2023-06-04T20:52:46.888Z,13.69
2023-06-04T20:55:18.032Z,13.60
2023-06-04T20:57:47.683Z,13.57
2023-06-04T21:00:17.938Z,13.46
2023-06-04T21:02:47.572Z,13.44
2023-06-04T21:05:17.449Z,13.39
2023-06-04T21:07:49.536Z,13.22
2023-06-04T21:10:19.076Z,13.15
2023-06-04T21:12:48.591Z,13.03
2023-06-04T21:15:19.299Z,13.05
2023-06-04T21:17:48.918Z,12.93
2023-06-04T21:20:19.038Z,12.84
2023-06-04T21:22:51.148Z,12.78
2023-06-04T21:25:20.710Z,12.68
2023-06-04T21:27:50.805Z,12.74
2023-06-04T21:30:20.438Z,12.69
2023-06-04T21:32:50.604Z,12.72
2023-06-04T21:35:21.138Z,12.75
2023-06-04T21:37:53.285Z,12.69
2023-06-04T21:40:22.850Z,12.68
2023-06-04T21:42:52.395Z,12.71
2023-06-04T21:45:22.906Z,12.53
2023-06-04T21:47:52.995Z,12.63
2023-06-04T21:50:23.392Z,12.60
2023-06-04T21:52:55.707Z,12.48
2023-06-04T21:55:25.366Z,12.62
2023-06-04T21:57:55.333Z,12.73
2023-06-04T22:00:25.250Z,12.47
2023-06-04T22:02:54.970Z,12.33
2023-06-04T22:05:24.748Z,12.29
2023-06-04T22:07:56.890Z,12.20
2023-06-04T22:10:26.507Z,12.03
2023-06-04T22:12:56.082Z,12.27
2023-06-04T22:15:25.796Z,12.17
2023-06-04T22:17:56.399Z,12.07
2023-06-04T22:20:27.556Z,11.92
2023-06-04T22:22:59.718Z,11.84
2023-06-04T22:25:29.274Z,11.74
2023-06-04T22:27:58.840Z,11.71
2023-06-04T22:30:28.441Z,11.73
2023-06-04T22:32:58.011Z,11.54
2023-06-04T22:35:27.642Z,11.68
2023-06-04T22:37:59.762Z,11.56
2023-06-04T22:40:29.380Z,11.49
2023-06-04T22:42:58.998Z,11.48
2023-06-04T22:45:28.619Z,11.41
2023-06-04T22:47:58.287Z,11.47
2023-06-04T22:50:27.968Z,11.46
2023-06-04T22:53:00.155Z,11.37
2023-06-04T22:55:29.716Z,11.31
2023-06-04T22:57:59.278Z,11.44
2023-06-04T23:00:28.865Z,11.48
2023-06-04T23:02:58.697Z,11.30
2023-06-04T23:05:29.622Z,11.24
2023-06-04T23:08:01.769Z,11.27
2023-06-04T23:10:31.358Z,11.23
2023-06-04T23:13:00.862Z,11.30
2023-06-04T23:15:33.596Z,11.33
2023-06-04T23:18:03.345Z,11.35
2023-06-04T23:20:32.952Z,11.32
2023-06-04T23:23:05.407Z,11.31
2023-06-04T23:25:35.161Z,11.24
2023-06-04T23:28:04.737Z,11.03
2023-06-04T23:30:34.579Z,11.12
2023-06-04T23:33:04.423Z,11.33
2023-06-04T23:35:34.195Z,10.87
2023-06-04T23:38:06.364Z,10.76
2023-06-04T23:40:36.168Z,10.77
2023-06-04T23:43:05.737Z,10.96
2023-06-04T23:45:38.362Z,10.94
2023-06-04T23:48:07.987Z,10.84
2023-06-04T23:50:37.881Z,10.93
2023-06-04T23:53:09.954Z,10.83
2023-06-04T23:55:39.961Z,10.93
2023-06-04T23:58:09.771Z,10.79
